Westmont, Illinois
Current Conditions -  °F | °C
As of 4:53 AM on Saturday 25 Oct 2014 (Local Time) from KMDW Reporting Station
Overcast Overcast  
Wind Chill: 58°   Ceiling: 1100
Heat Index: 58°   Visibility: 7mi
Dew Point: 54°   Wind: 6mph
Humidity: 87%   Direction: 270°W
Pressure: 29.9"   Gusts: NA
Location:  41.8°N, 87.98°W
Report Text: KMDW 250953Z 27005KT 7SM OVC011 14/12 A2990 RMK AO2 SLP123 T01440122
Loading
Personal Weather Stations






























Interactive Weather Map
Tropical Storm Tracking
New forecast layout! Learn more

10-Day Weather Forecast

Advertisements
Track Severe Weather on mobile